createdAt,value
2022-08-03T00:00:24.360Z,68.97
2022-08-03T00:02:51.121Z,69.36
2022-08-03T00:05:17.793Z,69.05
2022-08-03T00:07:44.451Z,69.58
2022-08-03T00:10:12.686Z,69.72
2022-08-03T00:12:42.243Z,69.65
2022-08-03T00:15:11.298Z,69.90
2022-08-03T00:17:52.934Z,69.88
2022-08-03T00:20:21.659Z,69.89
2022-08-03T00:22:48.737Z,70.24
2022-08-03T00:25:15.383Z,70.30
2022-08-03T00:27:42.022Z,70.48
2022-08-03T00:30:09.345Z,70.95
2022-08-03T00:32:41.368Z,70.68
2022-08-03T00:35:18.289Z,70.74
2022-08-03T00:37:58.977Z,70.98
2022-08-03T00:40:28.286Z,71.32
2022-08-03T00:42:59.588Z,71.01
2022-08-03T00:45:37.647Z,71.14
2022-08-03T00:48:19.683Z,71.09
2022-08-03T00:50:55.268Z,71.44
2022-08-03T00:53:24.308Z,71.23
2022-08-03T00:55:51.196Z,71.96
2022-08-03T00:58:21.095Z,71.68
2022-08-03T01:00:47.706Z,72.31
2022-08-03T01:03:14.309Z,72.10
2022-08-03T01:05:59.047Z,72.02
2022-08-03T01:08:51.665Z,72.68
2022-08-03T01:11:37.468Z,72.54
2022-08-03T01:14:39.231Z,72.97
2022-08-03T01:17:23.287Z,73.15
2022-08-03T01:19:56.368Z,73.10
2022-08-03T01:22:57.125Z,73.12
2022-08-03T01:25:54.408Z,73.36
2022-08-03T01:29:05.700Z,73.13
2022-08-03T01:32:58.606Z,73.40
2022-08-03T01:34:41.418Z,73.83
2022-08-03T01:37:10.813Z,74.11
2022-08-03T01:39:41.149Z,74.14
2022-08-03T01:42:11.709Z,74.42
2022-08-03T01:44:41.733Z,74.78
2022-08-03T01:47:09.522Z,74.71
2022-08-03T01:49:40.858Z,74.83
2022-08-03T01:52:08.940Z,74.73
2022-08-03T01:54:45.464Z,75.04
2022-08-03T01:57:14.356Z,75.33
2022-08-03T01:59:43.227Z,75.68
2022-08-03T02:02:29.868Z,75.50
2022-08-03T02:05:05.924Z,75.42
2022-08-03T02:07:39.919Z,75.48
2022-08-03T02:10:07.635Z,75.70
2022-08-03T02:12:37.137Z,76.04
2022-08-03T02:15:07.071Z,75.87
2022-08-03T02:17:39.693Z,76.17
2022-08-03T02:20:09.067Z,76.25
2022-08-03T02:22:36.303Z,76.43
2022-08-03T02:25:05.504Z,76.54
2022-08-03T02:27:43.135Z,76.34
2022-08-03T02:30:14.364Z,76.87
2022-08-03T02:32:44.098Z,76.63
2022-08-03T02:35:14.952Z,76.74
2022-08-03T02:37:59.951Z,77.25
2022-08-03T02:40:34.224Z,76.92
2022-08-03T02:43:05.623Z,76.87
2022-08-03T02:45:36.737Z,77.51
2022-08-03T02:48:07.548Z,77.26
2022-08-03T02:50:35.176Z,77.32
2022-08-03T02:53:03.303Z,77.62
2022-08-03T02:55:31.917Z,77.38
2022-08-03T02:58:01.493Z,77.84
2022-08-03T03:00:29.870Z,78.01
2022-08-03T03:02:59.591Z,78.01
2022-08-03T03:05:54.652Z,78.02
2022-08-03T03:08:17.766Z,78.14
2022-08-03T03:10:46.629Z,78.23
2022-08-03T03:13:16.002Z,78.19
2022-08-03T03:15:47.478Z,78.19
2022-08-03T03:18:22.078Z,78.60
2022-08-03T03:20:53.060Z,78.51
2022-08-03T03:23:22.198Z,78.74
2022-08-03T03:25:52.279Z,78.70
2022-08-03T03:28:19.463Z,78.83
2022-08-03T03:30:52.876Z,78.84
2022-08-03T03:33:21.674Z,78.97
2022-08-03T03:35:48.592Z,79.07
2022-08-03T03:38:15.241Z,79.22
2022-08-03T03:40:42.342Z,79.26
2022-08-03T03:43:10.572Z,79.49
2022-08-03T03:45:37.827Z,79.70
2022-08-03T03:48:05.770Z,79.46
2022-08-03T03:50:33.412Z,79.43
2022-08-03T03:53:00.515Z,79.63
2022-08-03T03:55:27.443Z,79.43
2022-08-03T03:57:54.785Z,79.75
2022-08-03T04:00:21.802Z,79.47
2022-08-03T04:02:48.447Z,79.79
2022-08-03T04:05:34.304Z,79.60
2022-08-03T04:08:27.838Z,79.92
2022-08-03T04:11:29.021Z,79.51
2022-08-03T04:14:02.838Z,79.57
2022-08-03T04:16:33.782Z,79.71
2022-08-03T04:19:08.167Z,79.61
2022-08-03T04:21:38.188Z,79.26
2022-08-03T04:24:09.065Z,79.61
2022-08-03T04:26:39.603Z,79.44
2022-08-03T04:29:09.188Z,79.03
2022-08-03T04:31:38.411Z,79.31
2022-08-03T04:34:05.129Z,78.74
2022-08-03T04:36:33.929Z,78.81
2022-08-03T04:39:02.457Z,78.86
2022-08-03T04:41:30.907Z,78.64
2022-08-03T04:44:02.151Z,78.49
2022-08-03T04:46:34.612Z,78.23
2022-08-03T04:49:04.447Z,78.07
2022-08-03T04:51:31.847Z,78.01
2022-08-03T04:53:59.463Z,77.61
2022-08-03T04:56:26.071Z,77.34
2022-08-03T04:58:53.089Z,77.47
2022-08-03T05:01:20.905Z,77.23
2022-08-03T05:03:47.492Z,75.90
2022-08-03T05:06:16.277Z,70.51
2022-08-03T05:08:47.036Z,64.30
2022-08-03T05:11:16.560Z,59.47
2022-08-03T05:13:44.204Z,55.67
2022-08-03T05:16:11.896Z,52.87
2022-08-03T05:18:38.544Z,50.26
2022-08-03T05:21:05.279Z,48.34
2022-08-03T05:23:31.985Z,48.01
2022-08-03T05:25:58.585Z,46.34
2022-08-03T05:28:27.451Z,44.68
2022-08-03T05:30:54.047Z,43.71
2022-08-03T05:33:20.663Z,43.09
2022-08-03T05:35:57.476Z,42.00
2022-08-03T05:38:34.078Z,40.75
2022-08-03T05:41:21.089Z,42.27
2022-08-03T05:43:49.702Z,40.68
2022-08-03T05:46:18.767Z,39.31
2022-08-03T05:48:45.558Z,37.94
2022-08-03T05:51:12.463Z,36.95
2022-08-03T05:53:43.313Z,36.44
2022-08-03T05:56:13.771Z,34.73
2022-08-03T05:58:49.194Z,34.86
2022-08-03T06:01:17.284Z,34.64
2022-08-03T06:03:45.330Z,33.34
2022-08-03T06:06:12.186Z,33.41
2022-08-03T06:08:41.885Z,33.99
2022-08-03T06:11:11.189Z,33.39
2022-08-03T06:13:41.313Z,32.72
2022-08-03T06:16:08.120Z,31.78
2022-08-03T06:18:35.439Z,31.94
2022-08-03T06:21:14.724Z,32.75
2022-08-03T06:23:52.818Z,32.38
2022-08-03T06:26:20.262Z,31.22
2022-08-03T06:28:52.711Z,30.66
2022-08-03T06:31:32.240Z,30.24
2022-08-03T06:34:33.749Z,29.55
2022-08-03T06:36:51.113Z,29.15
2022-08-03T06:39:19.401Z,29.17
2022-08-03T06:41:45.939Z,28.61
2022-08-03T06:44:12.874Z,28.39
2022-08-03T06:46:39.817Z,27.98
2022-08-03T06:49:10.122Z,27.57
2022-08-03T06:52:04.327Z,27.62
2022-08-03T06:54:24.531Z,27.58
2022-08-03T06:56:51.153Z,26.83
2022-08-03T07:00:09.904Z,26.76
2022-08-03T07:02:06.647Z,26.55
2022-08-03T07:04:35.851Z,26.67
2022-08-03T07:07:02.438Z,26.31
2022-08-03T07:09:29.008Z,26.27
2022-08-03T07:11:55.637Z,25.78
2022-08-03T07:14:22.220Z,26.02
2022-08-03T07:16:51.029Z,25.86
2022-08-03T07:19:17.583Z,26.23
2022-08-03T07:21:47.261Z,26.30
2022-08-03T07:24:13.821Z,25.65
2022-08-03T07:26:40.381Z,25.63
2022-08-03T07:29:11.895Z,25.34
2022-08-03T07:31:42.211Z,25.24
2022-08-03T07:34:08.795Z,24.71
2022-08-03T07:36:35.363Z,25.08
2022-08-03T07:39:02.045Z,24.96
2022-08-03T07:41:43.194Z,25.00
2022-08-03T07:44:12.754Z,24.74
2022-08-03T07:46:44.182Z,24.86
2022-08-03T07:49:11.005Z,24.74
2022-08-03T07:51:38.268Z,24.68
2022-08-03T07:54:05.454Z,24.73
2022-08-03T07:56:34.560Z,24.32
2022-08-03T07:59:02.510Z,24.50
2022-08-03T08:01:30.099Z,24.50
2022-08-03T08:03:59.000Z,25.43
2022-08-03T08:06:25.611Z,24.68
2022-08-03T08:08:53.677Z,24.48
2022-08-03T08:11:22.330Z,24.19
2022-08-03T08:13:49.023Z,24.51
2022-08-03T08:16:15.582Z,24.02
2022-08-03T08:18:44.592Z,23.73
2022-08-03T08:21:11.118Z,23.88
2022-08-03T08:23:43.191Z,24.04
2022-08-03T08:26:11.450Z,24.10
2022-08-03T08:28:38.059Z,23.96
2022-08-03T08:31:04.827Z,23.94
2022-08-03T08:33:54.213Z,23.36
2022-08-03T08:36:19.052Z,23.67
2022-08-03T08:38:45.880Z,23.81
2022-08-03T08:41:14.502Z,23.66
2022-08-03T08:43:42.101Z,24.06
2022-08-03T08:46:23.194Z,23.84
2022-08-03T08:48:51.508Z,23.88
2022-08-03T08:51:20.475Z,23.99
2022-08-03T08:53:52.436Z,24.11
2022-08-03T08:56:22.979Z,24.17
2022-08-03T08:58:52.797Z,24.07
2022-08-03T09:01:22.674Z,24.04
2022-08-03T09:03:50.151Z,24.22
2022-08-03T09:06:17.029Z,24.67
2022-08-03T09:08:46.127Z,24.54
2022-08-03T09:11:12.998Z,24.31
2022-08-03T09:13:39.938Z,25.02
2022-08-03T09:16:20.797Z,24.98
2022-08-03T09:18:51.439Z,25.05
2022-08-03T09:21:33.471Z,26.03
2022-08-03T09:24:05.178Z,26.36
2022-08-03T09:26:36.671Z,26.14
2022-08-03T09:29:15.405Z,26.67
2022-08-03T09:31:47.849Z,27.23
2022-08-03T09:34:25.582Z,26.99
2022-08-03T09:36:57.858Z,27.71
2022-08-03T09:39:40.548Z,27.98
2022-08-03T09:42:08.879Z,27.88
2022-08-03T09:44:44.534Z,28.50
2022-08-03T09:47:15.845Z,29.13
2022-08-03T09:49:57.859Z,29.18
2022-08-03T09:52:49.967Z,29.75
2022-08-03T09:56:30.411Z,29.86
2022-08-03T09:58:10.440Z,29.68
2022-08-03T10:00:55.973Z,30.08
2022-08-03T10:03:23.191Z,29.88
2022-08-03T10:05:49.994Z,30.44
2022-08-03T10:08:18.527Z,30.47
2022-08-03T10:10:49.598Z,30.92
2022-08-03T10:13:19.670Z,30.90
2022-08-03T10:16:22.878Z,30.51
2022-08-03T10:18:38.325Z,31.27
2022-08-03T10:21:10.466Z,31.31
2022-08-03T10:23:40.898Z,30.99
2022-08-03T10:26:08.412Z,31.66
2022-08-03T10:28:45.284Z,30.98
2022-08-03T10:31:14.043Z,31.33
2022-08-03T10:33:51.297Z,31.54
2022-08-03T10:36:23.010Z,32.00
2022-08-03T10:38:55.169Z,32.06
2022-08-03T10:41:24.812Z,32.20
2022-08-03T10:44:05.842Z,31.67
2022-08-03T10:46:34.514Z,31.43
2022-08-03T10:49:01.939Z,31.49
2022-08-03T10:51:32.329Z,31.43
2022-08-03T10:54:01.599Z,31.36
2022-08-03T10:56:53.522Z,32.13
2022-08-03T10:59:47.173Z,31.55
2022-08-03T11:02:18.037Z,31.18
2022-08-03T11:04:49.884Z,31.23
2022-08-03T11:07:17.486Z,30.96
2022-08-03T11:09:55.217Z,31.11
2022-08-03T11:12:29.878Z,31.04
2022-08-03T11:15:08.585Z,31.19
2022-08-03T11:17:46.103Z,30.97
2022-08-03T11:20:51.227Z,30.94
2022-08-03T11:24:03.357Z,30.71
2022-08-03T11:26:33.008Z,30.52
2022-08-03T11:29:36.157Z,30.36
2022-08-03T11:32:02.738Z,30.14
2022-08-03T11:34:31.622Z,30.50
2022-08-03T11:37:26.331Z,30.27
2022-08-03T11:39:57.593Z,30.04
2022-08-03T11:42:24.494Z,30.06
2022-08-03T11:44:52.585Z,29.84
2022-08-03T11:47:22.985Z,30.08
2022-08-03T11:49:52.047Z,29.38
2022-08-03T11:52:19.569Z,29.88
2022-08-03T11:54:57.603Z,30.09
2022-08-03T11:58:57.762Z,29.75
2022-08-03T12:00:38.902Z,29.81
2022-08-03T12:03:11.939Z,29.47
2022-08-03T12:05:51.798Z,29.50
2022-08-03T12:08:40.220Z,29.65
2022-08-03T12:11:09.169Z,29.90
2022-08-03T12:14:44.468Z,30.11
2022-08-03T12:16:34.809Z,30.01
2022-08-03T12:19:04.211Z,29.69
2022-08-03T12:21:33.340Z,30.15
2022-08-03T12:24:02.559Z,30.03
2022-08-03T12:26:32.830Z,30.26
2022-08-03T12:28:59.552Z,30.22
2022-08-03T12:31:26.153Z,30.90
2022-08-03T12:34:08.356Z,30.22
2022-08-03T12:36:39.090Z,30.46
2022-08-03T12:39:07.447Z,30.33
2022-08-03T12:41:38.923Z,29.68
2022-08-03T12:44:08.960Z,30.45
2022-08-03T12:46:47.091Z,30.67
2022-08-03T12:49:17.382Z,30.75
2022-08-03T12:51:46.272Z,30.85
2022-08-03T12:54:32.079Z,30.73
2022-08-03T12:57:10.861Z,31.01
2022-08-03T12:59:53.217Z,31.22
2022-08-03T13:02:24.677Z,31.34
2022-08-03T13:04:53.342Z,31.67
2022-08-03T13:07:21.670Z,31.77
2022-08-03T13:09:56.282Z,31.70
2022-08-03T13:12:27.814Z,31.94
2022-08-03T13:15:01.059Z,31.96
2022-08-03T13:17:28.366Z,31.91
2022-08-03T13:19:55.820Z,32.42
2022-08-03T13:22:24.904Z,32.29
2022-08-03T13:24:53.447Z,32.12
2022-08-03T13:28:01.493Z,33.22
2022-08-03T13:30:08.944Z,32.30
2022-08-03T13:32:38.236Z,32.31
2022-08-03T13:35:05.608Z,32.73
2022-08-03T13:37:32.620Z,33.31
2022-08-03T13:40:02.549Z,33.24
2022-08-03T13:42:33.811Z,32.94
2022-08-03T13:45:01.090Z,32.76
2022-08-03T13:47:28.341Z,32.62
2022-08-03T13:50:01.485Z,32.75
2022-08-03T13:52:36.256Z,32.98
2022-08-03T13:55:05.625Z,32.60
2022-08-03T13:58:11.637Z,32.85
2022-08-03T14:00:26.944Z,32.93
2022-08-03T14:02:59.931Z,33.11
2022-08-03T14:05:32.029Z,32.65
2022-08-03T14:08:04.737Z,32.61
2022-08-03T14:10:42.518Z,33.18
2022-08-03T14:13:11.514Z,33.23
2022-08-03T14:15:38.774Z,33.75
2022-08-03T14:18:15.774Z,33.58
2022-08-03T14:20:49.996Z,33.71
2022-08-03T14:23:18.550Z,34.03
2022-08-03T14:25:52.509Z,33.62
2022-08-03T14:28:22.413Z,33.60
2022-08-03T14:30:49.777Z,33.63
2022-08-03T14:33:16.465Z,33.69
2022-08-03T14:35:43.309Z,33.87
2022-08-03T14:38:09.894Z,34.00
2022-08-03T14:40:36.500Z,34.11
2022-08-03T14:43:05.489Z,33.84
2022-08-03T14:45:32.113Z,34.25
2022-08-03T14:50:24.961Z,33.83
2022-08-03T14:50:51.378Z,33.37
2022-08-03T14:53:19.609Z,33.90
2022-08-03T14:55:49.837Z,33.53
2022-08-03T14:58:25.394Z,34.22
2022-08-03T15:00:53.390Z,34.10
2022-08-03T15:03:23.598Z,34.40
2022-08-03T15:05:52.947Z,34.41
2022-08-03T15:08:20.014Z,33.47
2022-08-03T15:10:46.735Z,34.07
2022-08-03T15:13:16.551Z,34.22
2022-08-03T15:15:43.576Z,34.06
2022-08-03T15:18:10.256Z,34.40
2022-08-03T15:20:44.520Z,34.85
2022-08-03T15:23:13.218Z,35.01
2022-08-03T15:26:03.908Z,34.43
2022-08-03T15:28:28.655Z,34.45
2022-08-03T15:30:55.264Z,34.37
2022-08-03T15:33:21.910Z,33.41
2022-08-03T15:35:49.723Z,33.63
2022-08-03T15:38:16.475Z,34.21
2022-08-03T15:40:43.118Z,34.00
2022-08-03T15:43:09.788Z,34.29
2022-08-03T15:45:37.071Z,34.18
2022-08-03T15:48:06.674Z,33.83
2022-08-03T15:50:33.192Z,34.30
2022-08-03T15:52:59.808Z,34.17
2022-08-03T15:55:26.743Z,34.54
2022-08-03T15:59:04.635Z,34.31
2022-08-03T16:00:41.231Z,34.69
2022-08-03T16:03:07.948Z,34.79
2022-08-03T16:05:35.464Z,35.43
2022-08-03T16:08:03.753Z,34.14
2022-08-03T16:10:32.713Z,34.39
2022-08-03T16:13:00.252Z,35.26
2022-08-03T16:15:27.577Z,34.93
2022-08-03T16:17:54.350Z,35.08
2022-08-03T16:20:31.419Z,35.07
2022-08-03T16:23:06.989Z,34.60
2022-08-03T16:25:40.268Z,35.30
2022-08-03T16:28:13.760Z,34.85
2022-08-03T16:30:42.774Z,35.40
2022-08-03T16:33:16.974Z,34.43
2022-08-03T16:35:45.393Z,34.91
2022-08-03T16:38:18.814Z,35.05
2022-08-03T16:40:47.173Z,35.76
2022-08-03T16:43:18.789Z,35.54
2022-08-03T16:45:49.446Z,36.00
2022-08-03T16:48:17.292Z,35.81
2022-08-03T16:50:44.562Z,35.89
2022-08-03T16:53:17.010Z,35.47
2022-08-03T16:55:52.404Z,35.35
2022-08-03T16:58:34.647Z,35.37
2022-08-03T17:01:22.626Z,35.51
2022-08-03T17:04:01.575Z,35.48
2022-08-03T17:06:33.803Z,36.03
2022-08-03T17:09:02.196Z,36.31
2022-08-03T17:11:33.155Z,37.18
2022-08-03T17:14:07.755Z,37.10
2022-08-03T17:16:36.259Z,37.28
2022-08-03T17:19:07.065Z,37.54
2022-08-03T17:21:39.261Z,37.03
2022-08-03T17:24:12.443Z,37.71
2022-08-03T17:26:44.649Z,37.62
2022-08-03T17:29:13.281Z,38.04
2022-08-03T17:31:48.703Z,38.03
2022-08-03T17:34:17.729Z,37.69
2022-08-03T17:39:57.528Z,38.47
2022-08-03T17:42:29.227Z,39.45
2022-08-03T17:45:15.784Z,39.50
2022-08-03T17:47:43.599Z,39.98
2022-08-03T17:50:23.912Z,40.21
2022-08-03T17:53:01.209Z,40.32
2022-08-03T17:55:57.429Z,40.37
2022-08-03T17:58:54.792Z,40.54
2022-08-03T18:02:03.317Z,40.68
2022-08-03T18:04:41.738Z,40.99
2022-08-03T18:07:15.752Z,41.71
2022-08-03T18:10:04.652Z,41.60
2022-08-03T18:13:10.858Z,41.86
2022-08-03T18:15:42.912Z,42.29
2022-08-03T18:18:11.333Z,43.04
2022-08-03T18:20:41.908Z,42.80
2022-08-03T18:23:11.007Z,42.97
2022-08-03T18:25:59.204Z,43.10
2022-08-03T18:28:27.839Z,43.44
2022-08-03T18:31:04.385Z,43.58
2022-08-03T18:34:17.196Z,43.64
2022-08-03T18:36:30.432Z,43.86
2022-08-03T18:39:02.403Z,43.49
2022-08-03T18:41:33.410Z,43.17
2022-08-03T18:44:07.155Z,43.73
2022-08-03T18:47:17.387Z,44.02
2022-08-03T18:49:53.933Z,44.75
2022-08-03T18:52:22.813Z,44.99
2022-08-03T18:55:20.683Z,44.97
2022-08-03T18:58:00.911Z,45.88
2022-08-03T19:00:34.161Z,46.00
2022-08-03T19:03:42.832Z,46.46
2022-08-03T19:09:12.631Z,46.59
2022-08-03T19:12:14.418Z,46.77
2022-08-03T19:14:52.443Z,47.02
2022-08-03T19:17:22.537Z,47.29
2022-08-03T19:19:58.887Z,47.74
2022-08-03T19:22:32.724Z,47.86
2022-08-03T19:25:01.800Z,48.55
2022-08-03T19:27:30.204Z,48.69
2022-08-03T19:30:02.907Z,49.03
2022-08-03T19:32:32.555Z,49.30
2022-08-03T19:35:01.860Z,49.54
2022-08-03T19:37:38.118Z,50.05
2022-08-03T19:40:10.232Z,50.31
2022-08-03T19:42:42.683Z,50.29
2022-08-03T19:45:15.512Z,50.62
2022-08-03T19:47:54.710Z,50.84
2022-08-03T19:50:21.421Z,50.59
2022-08-03T19:52:50.058Z,51.03
2022-08-03T19:55:21.062Z,50.59
2022-08-03T19:57:49.499Z,51.20
2022-08-03T20:00:19.562Z,51.61
2022-08-03T20:02:46.686Z,51.32
2022-08-03T20:05:15.228Z,51.34
2022-08-03T20:07:48.332Z,51.66
2022-08-03T20:10:16.831Z,51.94
2022-08-03T20:12:45.299Z,51.77
2022-08-03T20:15:12.043Z,52.06
2022-08-03T20:17:55.474Z,51.96
2022-08-03T20:20:33.296Z,52.40
2022-08-03T20:23:06.951Z,52.70
2022-08-03T20:25:57.109Z,52.42
2022-08-03T20:28:57.046Z,51.98
2022-08-03T20:31:32.389Z,53.08
2022-08-03T20:34:06.905Z,52.79
2022-08-03T20:36:35.727Z,53.03
2022-08-03T20:39:07.821Z,53.38
2022-08-03T20:41:35.743Z,53.70
2022-08-03T20:44:04.390Z,53.70
2022-08-03T20:46:41.744Z,54.24
2022-08-03T20:49:13.499Z,54.41
2022-08-03T20:51:49.972Z,54.32
2022-08-03T20:54:29.302Z,54.85
2022-08-03T20:57:04.239Z,54.75
2022-08-03T20:59:50.839Z,55.03
2022-08-03T21:02:29.603Z,55.08
2022-08-03T21:05:03.199Z,55.20
2022-08-03T21:08:03.949Z,55.73
2022-08-03T21:10:29.323Z,55.59
2022-08-03T21:13:01.364Z,46.18
2022-08-03T21:13:15.934Z,56.07
2022-08-03T21:16:03.239Z,55.83
2022-08-03T21:18:41.240Z,55.97
2022-08-03T21:21:12.414Z,56.22
2022-08-03T21:23:49.090Z,56.52
2022-08-03T21:26:20.507Z,56.42
2022-08-03T21:28:52.290Z,56.94
2022-08-03T21:31:25.427Z,56.58
2022-08-03T21:33:58.080Z,56.76
2022-08-03T21:36:29.577Z,57.12
2022-08-03T21:38:57.723Z,57.02
2022-08-03T21:41:26.973Z,57.48
2022-08-03T21:43:53.695Z,57.47
2022-08-03T21:46:21.574Z,57.72
2022-08-03T21:48:54.265Z,57.86
2022-08-03T21:51:25.061Z,57.63
2022-08-03T21:54:03.257Z,58.11
2022-08-03T21:56:51.362Z,57.75
2022-08-03T21:59:22.130Z,57.96
2022-08-03T22:01:55.418Z,58.21
2022-08-03T22:04:53.191Z,58.68
2022-08-03T22:07:12.295Z,58.32
2022-08-03T22:09:38.957Z,58.65
2022-08-03T22:12:08.288Z,58.92
2022-08-03T22:14:35.096Z,59.33
2022-08-03T22:17:06.254Z,59.15
2022-08-03T22:19:33.824Z,59.48
2022-08-03T22:22:04.621Z,59.80
2022-08-03T22:24:32.712Z,60.15
2022-08-03T22:27:37.102Z,60.21
2022-08-03T22:30:12.113Z,60.34
2022-08-03T22:32:40.119Z,60.71
2022-08-03T22:35:08.860Z,61.06
2022-08-03T22:37:36.520Z,60.80
2022-08-03T22:40:09.713Z,61.06
2022-08-03T22:42:40.139Z,60.88
2022-08-03T22:45:07.992Z,61.64
2022-08-03T22:47:36.659Z,61.58
2022-08-03T22:50:31.375Z,61.87
2022-08-03T22:53:00.451Z,61.72
2022-08-03T22:55:27.790Z,61.93
2022-08-03T22:57:56.208Z,61.84
2022-08-03T23:00:23.925Z,62.27
2022-08-03T23:02:51.984Z,62.20
2022-08-03T23:06:02.317Z,62.29
2022-08-03T23:08:15.083Z,62.36
2022-08-03T23:10:46.711Z,62.58
2022-08-03T23:13:17.055Z,62.84
2022-08-03T23:15:56.510Z,62.90
2022-08-03T23:18:24.782Z,62.98
2022-08-03T23:20:52.763Z,63.20
2022-08-03T23:23:22.337Z,63.60
2022-08-03T23:25:51.166Z,63.74
2022-08-03T23:28:18.430Z,64.00
2022-08-03T23:30:45.689Z,64.27
2022-08-03T23:33:17.242Z,64.58
2022-08-03T23:36:20.046Z,64.74
2022-08-03T23:38:47.516Z,64.88
2022-08-03T23:41:15.596Z,65.17
2022-08-03T23:43:51.044Z,65.29
2022-08-03T23:46:23.579Z,65.47
2022-08-03T23:48:50.969Z,65.73
2022-08-03T23:51:26.394Z,65.29
2022-08-03T23:54:06.219Z,65.68
2022-08-03T23:57:23.709Z,65.38
